Alburg, Vermont
Current Conditions -  °F | °C
As of 10:35 PM on Monday 20 Oct 2014 (Local Time) from KFSO Reporting Station
Overcast Overcast  
Wind Chill:   Ceiling: 10000
Heat Index:   Visibility: 10mi
Dew Point:   Wind: 0mph
Humidity: 86%   Direction: NA
Pressure: 29.93"   Gusts: NA
Location:  44.9685°N, 73.281°W
Report Text: KFSO 210235Z AUTO 00000KT 10SM OVC100 06/04 A2993 RMK AO2 T00570035
Loading
Personal Weather Stations






























Interactive Weather Map
Tropical Storm Tracking
New forecast layout! Learn more

10-Day Weather Forecast

Advertisements
Track Severe Weather on mobile